Data for 09/07/2013

Time Sea-Level Adjusted Pressure Absolute Pressure Temperature Relative Humidity Dew Point   
(mb) (inHg) (mb) (inHg) (C) (F) (%) (C) (F)
00:05 1020 30.12 849 25.07 21.1 70 36 5.7 42.3
00:10 1020 30.12 849 25.07 20.9 69.6 37 5.8 42.5
00:15 1020 30.12 849 25.07 20.8 69.4 38 5.9 42.7
00:20 1020 30.12 849 25.07 20.7 69.2 37 5.8 42.4
00:25 1020 30.12 849 25.07 20.5 69 39 6.4 43.4
00:30 1020 30.12 849 25.07 20.1 68.3 40 6.3 43.4
00:35 1020 30.12 850 25.1 19.9 67.8 41 6.3 43.3
00:40 1020 30.12 850 25.1 19.8 67.6 41 6.4 43.6
00:45 1020 30.12 850 25.1 19.6 67.2 43 6.6 43.9
00:50 1020 30.12 850 25.1 19.5 67.2 41 6.1 43
00:55 1020 30.12 850 25.1 19.7 67.5 43 6.9 44.4
01:00 1020 30.12 850 25.1 19.4 66.9 47 7.8 46
01:05 1021 30.15 850 25.1 19 66.3 45 6.9 44.4
01:10 1021 30.15 850 25.1 18.9 66 45 6.9 44.4
01:15 1021 30.15 850 25.1 18.8 65.9 44 6.6 43.8
01:20 1021 30.15 850 25.1 19 66.2 44 6.6 43.9
01:25 1021 30.15 850 25.1 18.8 65.8 45 6.8 44.3
01:30 1021 30.15 850 25.1 18.6 65.4 47 7 44.6
01:35 1021 30.15 850 25.1 18.2 64.7 48 7 44.6
01:40 1021 30.15 850 25.1 18.1 64.5 48 6.9 44.5
01:45 1021 30.15 850 25.1 18 64.4 48 6.9 44.5
01:50 1021 30.15 850 25.1 18.2 64.7 47 6.8 44.2
01:55 1021 30.15 850 25.1 18.3 65 46 6.6 44
02:00 1021 30.15 850 25.1 18.4 65.1 46 6.7 44.1
02:05 1021 30.15 850 25.1 18.3 64.9 50 7.7 45.9
02:10 1021 30.15 850 25.1 18.1 64.6 50 7.5 45.6
02:15 1021 30.15 850 25.1 17.7 63.8 50 7.3 45.2
02:20 1021 30.15 850 25.1 17.7 63.9 49 7 44.7
02:25 1021 30.15 850 25.1 17.8 64.1 52 7.9 46.2
02:30 1021 30.15 850 25.1 17.1 62.7 54 7.9 46.2
02:35 1021 30.15 850 25.1 16.8 62.2 59 8.7 47.7
02:40 1021 30.15 850 25.1 16.4 61.6 57 8.1 46.6
02:45 1021 30.15 850 25.1 16.3 61.3 57 7.9 46.3
02:50 1021 30.15 850 25.1 16.1 61 59 8.3 46.9
02:55 1021 30.15 850 25.1 15.7 60.3 61 8.3 47
03:00 1021 30.15 850 25.1 15.4 59.7 64 8.7 47.7
03:05 1021 30.15 850 25.1 15.5 59.8 62 8.3 47
03:10 1021 30.15 850 25.1 15.6 60.1 63 8.6 47.5
03:15 1021 30.15 850 25.1 15 59 65 8.5 47.4
03:20 1021 30.15 850 25.1 14.6 58.2 67 8.7 47.6
03:25 1021 30.15 850 25.1 14.5 58.1 66 8.3 47
03:30 1021 30.15 850 25.1 14.8 58.6 64 8.2 46.7
03:35 1021 30.15 850 25.1 15.2 59.4 62 8 46.4
03:40 1021 30.15 850 25.1 15.6 60.1 62 8.5 47.3
03:45 1021 30.15 850 25.1 15.1 59.3 65 8.6 47.4
03:50 1021 30.15 850 25.1 14.7 58.5 65 8.4 47.1
03:55 1021 30.15 851 25.13 14.9 58.8 64 8.3 46.9
04:00 1021 30.15 851 25.13 15.3 59.6 63 8.5 47.3
04:05 1021 30.15 851 25.13 15.3 59.6 64 8.7 47.7
04:10 1021 30.15 851 25.13 15.2 59.4 65 8.6 47.6
04:15 1021 30.15 851 25.13 15 59 66 8.7 47.6
04:20 1021 30.15 851 25.13 14.9 58.8 65 8.6 47.4
04:25 1022 30.18 851 25.13 15.2 59.3 64 8.6 47.4
04:30 1022 30.18 851 25.13 14.5 58.2 67 8.6 47.4
04:35 1022 30.18 851 25.13 14.1 57.3 68 8.3 47
04:40 1022 30.18 851 25.13 14.1 57.4 68 8.3 46.9
04:45 1022 30.18 851 25.13 14.2 57.6 67 8.3 46.9
04:50 1022 30.18 851 25.13 14.3 57.7 67 8.4 47.1
04:55 1022 30.18 851 25.13 14.5 58.1 67 8.4 47.1
05:00 1022 30.18 851 25.13 14.7 58.4 67 8.6 47.4
05:05 1022 30.18 851 25.13 14.6 58.3 66 8.5 47.3
05:10 1022 30.18 851 25.13 14.4 58 67 8.4 47.1
05:15 1022 30.18 851 25.13 14.2 57.5 68 8.4 47.1
05:20 1022 30.18 851 25.13 14 57.3 69 8.4 47.1
05:25 1022 30.18 851 25.13 13.7 56.7 70 8.4 47.2
05:30 1022 30.18 851 25.13 13.4 56.1 70 8.1 46.5
05:35 1022 30.18 851 25.13 13.8 56.8 69 8.3 46.9
05:40 1022 30.18 851 25.13 13.9 57 69 8.4 47.1
05:45 1022 30.18 851 25.13 14 57.1 69 8.3 47
05:50 1022 30.18 851 25.13 14.3 57.8 68 8.5 47.3
05:55 1022 30.18 851 25.13 14.3 57.8 68 8.5 47.3
06:00 1022 30.18 851 25.13 14.3 57.7 68 8.5 47.4
06:05 1022 30.18 852 25.16 14.1 57.4 69 8.6 47.4
06:10 1022 30.18 852 25.16 13.8 56.8 70 8.5 47.2
06:15 1022 30.18 852 25.16 13.9 57.1 70 8.6 47.5
06:20 1022 30.18 852 25.16 14.1 57.4 69 8.6 47.4
06:25 1022 30.18 852 25.16 14.3 57.8 68 8.5 47.3
06:30 1022 30.18 852 25.16 14.3 57.7 70 8.9 48
06:35 1022 30.18 852 25.16 14.2 57.6 69 8.7 47.6
06:40 1022 30.18 851 25.13 14.5 58 68 8.7 47.6
06:45 1022 30.18 852 25.16 14.7 58.4 68 8.9 48
06:50 1022 30.18 852 25.16 14.7 58.5 67 8.8 47.9
06:55 1022 30.18 852 25.16 14.9 58.7 67 8.8 47.8
07:00 1022 30.18 852 25.16 14.8 58.6 68 9.1 48.4
07:05 1022 30.18 851 25.13 15 58.9 68 9.2 48.6
07:10 1022 30.18 852 25.16 15.2 59.4 69 9.7 49.5
07:15 1022 30.18 852 25.16 15.3 59.6 68 9.5 49.1
07:20 1022 30.18 852 25.16 15.5 59.9 67 9.4 48.9
07:25 1022 30.18 852 25.16 16.1 61 65 9.5 49.1
07:30 1022 30.18 852 25.16 17 62.6 65 10.5 50.8
07:35 1022 30.18 852 25.16 17.6 63.7 64 10.7 51.3
07:40 1022 30.18 852 25.16 18.2 64.7 63 11 51.8
07:45 1022 30.18 852 25.16 18.3 64.9 62 10.9 51.6
07:50 1023 30.21 852 25.16 18.6 65.6 62 11.4 52.6
07:55 1023 30.21 852 25.16 18.4 65.1 63 11.4 52.4
08:00 1022 30.18 852 25.16 18.5 65.3 61 11.1 51.9
08:05 1023 30.21 852 25.16 18.9 66 60 11 51.9
08:10 1023 30.21 852 25.16 19.6 67.4 60 11.8 53.3
08:15 1023 30.21 852 25.16 19.3 66.8 60 11.4 52.5
08:20 1023 30.21 852 25.16 19 66.2 62 11.7 53.1
08:25 1023 30.21 852 25.16 18.9 65.9 63 11.8 53.3
08:30 1023 30.21 852 25.16 19 66.1 64 12 53.6
08:35 1023 30.21 852 25.16 18.3 65 68 12.4 54.3
08:40 1023 30.21 852 25.16 18.2 64.8 67 12 53.6
08:45 1023 30.21 852 25.16 18.3 64.9 68 12.4 54.2
08:50 1023 30.21 852 25.16 18.5 65.2 66 12.1 53.7
08:55 1023 30.21 852 25.16 19.3 66.8 63 12.3 54.2
09:00 1023 30.21 852 25.16 19.9 67.8 62 12.6 54.7
09:05 1023 30.21 852 25.16 19.7 67.5 64 12.9 55.2
09:10 1023 30.21 852 25.16 19.7 67.5 64 12.9 55.1
09:15 1023 30.21 852 25.16 19.6 67.2 66 13.2 55.8
09:20 1023 30.21 852 25.16 19.5 67 69 13.6 56.6
09:25 1023 30.21 852 25.16 19.8 67.7 64 13 55.5
09:30 1023 30.21 852 25.16 20.6 69 64 13.5 56.4
09:35 1023 30.21 852 25.16 20.6 69.1 63 13.4 56.2
09:40 1023 30.21 852 25.16 20.7 69.3 63 13.6 56.5
09:45 1023 30.21 852 25.16 20.5 68.9 63 13.3 56
09:50 1023 30.21 852 25.16 20.9 69.6 62 13.4 56.1
09:55 1023 30.21 852 25.16 20.5 68.9 64 13.6 56.4
10:00 1023 30.21 852 25.16 19.7 67.5 65 13 55.3
10:05 1023 30.21 852 25.16 20.6 69.1 60 12.6 54.8
10:10 1023 30.21 852 25.16 21 69.8 61 13.4 56.1
10:15 1023 30.21 852 25.16 21.4 70.4 57 12.7 54.8
10:20 1023 30.21 852 25.16 21.5 70.7 57 12.8 55.1
10:25 1022 30.18 852 25.16 21.8 71.2 57 12.9 55.3
10:30 1022 30.18 852 25.16 22.3 72.2 56 13.2 55.7
10:35 1022 30.18 852 25.16 21.8 71.3 58 13.3 56
10:40 1022 30.18 852 25.16 21.6 70.8 57 12.9 55.3
10:45 1022 30.18 851 25.13 22.1 71.8 53 12.2 54
10:50 1022 30.18 851 25.13 22.7 72.9 54 13.1 55.6
10:55 1022 30.18 851 25.13 23 73.3 53 12.9 55.3
11:00 1022 30.18 851 25.13 23.5 74.4 51 13 55.4
11:05 1022 30.18 851 25.13 22.7 72.8 56 13.6 56.5
11:10 1022 30.18 851 25.13 22.4 72.3 52 12.3 54.1
11:15 1022 30.18 851 25.13 23.4 74.1 52 13 55.5
11:20 1022 30.18 851 25.13 23.8 74.8 50 12.9 55.2
11:25 1022 30.18 851 25.13 23.8 74.8 49 12.7 54.8
11:30 1022 30.18 851 25.13 24 75.2 49 12.7 54.8
11:35 1022 30.18 851 25.13 23.6 74.4 50 12.6 54.6
11:40 1022 30.18 851 25.13 23.9 74.9 48 12.2 54
11:45 1022 30.18 851 25.13 23.6 74.4 50 12.6 54.7
11:50 1022 30.18 851 25.13 24 75.2 47 12.1 53.7
11:55 1022 30.18 851 25.13 24.1 75.3 48 12.4 54.4
12:00 1022 30.18 851 25.13 24.2 75.6 45 11.9 53.4
12:05 1021 30.15 851 25.13 24.6 76.3 45 12.1 53.9
12:10 1021 30.15 851 25.13 24.4 75.9 47 12.7 54.8
12:15 1021 30.15 851 25.13 24.2 75.6 47 12.3 54.1
12:20 1021 30.15 851 25.13 24.1 75.4 48 12.4 54.4
12:25 1021 30.15 850 25.1 24.8 76.6 43 11.6 52.9
12:30 1021 30.15 850 25.1 25.3 77.5 42 11.7 53.1
12:35 1021 30.15 850 25.1 24.6 76.3 44 11.8 53.3
12:40 1021 30.15 850 25.1 24.6 76.2 46 12.2 54
12:45 1021 30.15 850 25.1 24.7 76.4 44 11.9 53.4
12:50 1021 30.15 850 25.1 25.1 77.1 43 11.8 53.3
12:55 1021 30.15 850 25.1 24.2 75.5 46 12.1 53.8
13:00 1021 30.15 850 25.1 23.6 74.4 48 12.1 53.7
13:05 1021 30.15 850 25.1 24.3 75.7 44 11.4 52.6
13:10 1021 30.15 850 25.1 24.8 76.6 42 11.1 52
13:15 1021 30.15 850 25.1 25.4 77.7 42 11.9 53.4
13:20 1021 30.15 850 25.1 25.6 78 41 11.7 53
13:25 1021 30.15 850 25.1 25.4 77.7 42 11.7 53.1
13:30 1021 30.15 850 25.1 25.5 77.8 41 11.3 52.4
13:35 1021 30.15 850 25.1 25.9 78.7 40 11.7 53
13:40 1020 30.12 850 25.1 26.3 79.3 39 11.6 52.9
13:45 1020 30.12 849 25.07 26.1 78.9 41 12 53.6
13:50 1020 30.12 849 25.07 26.2 79.2 38 11.1 52
13:55 1020 30.12 849 25.07 26.5 79.7 38 11.5 52.6
14:00 1020 30.12 849 25.07 27.6 81.6 36 11.2 52.2
14:05 1020 30.12 849 25.07 27 80.6 39 12.3 54.2
14:10 1020 30.12 849 25.07 26.3 79.4 38 11.1 51.9
14:15 1020 30.12 849 25.07 27.4 81.3 34 10.3 50.5
14:20 1020 30.12 849 25.07 28 82.5 34 10.9 51.6
14:25 1020 30.12 849 25.07 27.5 81.5 35 11.1 52
14:30 1020 30.12 849 25.07 27.1 80.8 37 11.3 52.3
14:35 1020 30.12 849 25.07 26.5 79.8 38 11.3 52.3
14:40 1020 30.12 849 25.07 26.1 79 38 10.8 51.5
14:45 1020 30.12 849 25.07 25.9 78.6 36 10.1 50.2
14:50 1020 30.12 849 25.07 25.7 78.3 40 11.3 52.4
14:55 1020 30.12 849 25.07 25.4 77.7 41 11.5 52.7
15:00 1020 30.12 849 25.07 25.5 77.9 39 10.7 51.3
15:05 1020 30.12 849 25.07 25.6 78.1 37 10 50
15:10 1020 30.12 849 25.07 25.6 78.1 39 11 51.9
15:15 1020 30.12 849 25.07 25.3 77.6 42 11.8 53.3
15:20 1019 30.09 849 25.07 24.9 76.9 44 12.1 53.7
15:25 1019 30.09 848 25.04 24.8 76.7 42 11.2 52.2
15:30 1019 30.09 848 25.04 24.4 76 44 11.5 52.7
15:35 1019 30.09 848 25.04 24.4 75.8 45 11.8 53.2
15:40 1019 30.09 848 25.04 23.9 75.1 46 11.8 53.3
15:45 1019 30.09 848 25.04 23.8 74.8 47 11.8 53.3
15:50 1019 30.09 848 25.04 24 75.3 45 11.7 53.1
15:55 1019 30.09 848 25.04 24.1 75.3 48 12.7 54.8
16:00 1019 30.09 849 25.07 23.6 74.6 49 12.4 54.3
16:05 1019 30.09 849 25.07 23.1 73.6 55 13.6 56.6
16:10 1019 30.09 849 25.07 22.6 72.7 63 15.3 59.5
16:15 1019 30.09 848 25.04 21.6 70.8 65 14.9 58.8
16:20 1019 30.09 848 25.04 20.8 69.5 62 13.4 56.1
16:25 1019 30.09 849 25.07 20.4 68.8 65 13.6 56.5
16:30 1019 30.09 849 25.07 20.6 69.1 56 11.8 53.2
16:35 1019 30.09 849 25.07 20.5 69 59 12.4 54.3
16:40 1019 30.09 849 25.07 20.1 68.2 60 12.3 54.1
16:45 1019 30.09 849 25.07 20.1 68.2 54 10.7 51.3
16:50 1019 30.09 849 25.07 20.4 68.8 52 10.4 50.7
16:55 1019 30.09 849 25.07 20.5 68.9 50 9.7 49.5
17:00 1019 30.09 849 25.07 20.7 69.2 50 10 50
17:05 1019 30.09 849 25.07 20.8 69.5 48 9.4 49
17:10 1019 30.09 849 25.07 20.9 69.6 49 10.1 50.1
17:15 1019 30.09 849 25.07 20.8 69.4 49 9.8 49.6
17:20 1019 30.09 849 25.07 20.7 69.3 47 9.2 48.5
17:25 1019 30.09 849 25.07 20.9 69.6 47 9.4 49
17:30 1019 30.09 849 25.07 21.1 69.9 49 10.1 50.2
17:35 1019 30.09 849 25.07 21 69.7 50 10.4 50.8
17:40 1019 30.09 849 25.07 21 69.7 37 5.9 42.6
17:45 1019 30.09 848 25.04 21.8 71.3 48 10.4 50.7
17:50 1019 30.09 848 25.04 21.8 71.2 32 4.6 40.3
17:55 1019 30.09 848 25.04 22.7 72.9 28 3.5 38.3
18:00 1019 30.09 848 25.04 23 73.4 36 7.5 45.5
18:05 1019 30.09 848 25.04 22.7 72.9 38 7.7 45.8
18:10 1019 30.09 848 25.04 22.7 72.9 36 7.2 45
18:15 1019 30.09 848 25.04 22.6 72.8 38 7.7 45.8
18:20 1019 30.09 848 25.04 22.6 72.7 36 7 44.6
18:25 1019 30.09 848 25.04 22.5 72.4 35 6.4 43.4
18:30 1019 30.09 848 25.04 22.3 72.2 36 6.7 44.1
18:35 1019 30.09 848 25.04 22.2 71.9 37 7 44.5
18:40 1019 30.09 848 25.04 21.9 71.5 37 6.7 44
18:45 1019 30.09 848 25.04 21.8 71.2 36 6.4 43.5
18:50 1019 30.09 848 25.04 21.6 70.8 36 6.1 43
18:55 1019 30.09 848 25.04 21.4 70.5 38 6.6 43.9
19:00 1019 30.09 848 25.04 21.1 70.1 38 6.4 43.5
19:05 1019 30.09 848 25.04 20.9 69.7 40 6.8 44.3
19:10 1019 30.09 848 25.04 20.8 69.4 39 6.5 43.7
19:15 1019 30.09 848 25.04 20.6 69 41 7.1 44.9
19:20 1019 30.09 848 25.04 20.4 68.7 40 6.4 43.4
19:25 1019 30.09 848 25.04 20.2 68.4 38 5.6 42
19:30 1019 30.09 849 25.07 20.2 68.3 39 5.8 42.4
19:35 1019 30.09 849 25.07 20.1 68.1 38 5.6 42.1
19:40 1019 30.09 849 25.07 20 68.1 40 6 42.8
19:45 1020 30.12 849 25.07 20.1 68.2 36 4.8 40.6
19:50 1020 30.12 849 25.07 20.4 68.8 37 5.3 41.5
19:55 1020 30.12 849 25.07 20.4 68.6 36 4.8 40.7
20:00 1020 30.12 849 25.07 20.3 68.5 35 4.4 39.9
20:05 1020 30.12 849 25.07 20.7 69.3 36 5.2 41.3
20:10 1020 30.12 849 25.07 20.6 69 36 5.2 41.4
20:15 1020 30.12 849 25.07 20.5 68.8 36 5.2 41.4
20:20 1020 30.12 849 25.07 20.3 68.6 38 5.6 42.2
20:25 1020 30.12 849 25.07 20 68 39 5.7 42.3
20:30 1020 30.12 849 25.07 19.7 67.4 41 6.3 43.3
20:35 1020 30.12 849 25.07 19.5 67 40 5.6 42.1
20:40 1020 30.12 849 25.07 19.4 67 40 5.7 42.2
20:45 1020 30.12 849 25.07 19.3 66.8 41 5.8 42.4
20:50 1020 30.12 849 25.07 19.3 66.8 41 5.7 42.3
20:55 1020 30.12 849 25.07 19.2 66.5 42 6 42.9
21:00 1020 30.12 849 25.07 19 66.2 42 5.9 42.6
21:05 1020 30.12 849 25.07 19 66.2 42 6.1 42.9
21:10 1020 30.12 849 25.07 18.9 66 43 6.2 43.1
21:15 1020 30.12 849 25.07 18.8 65.8 43 6.1 42.9
21:20 1020 30.12 849 25.07 18.7 65.7 44 6.3 43.3
21:25 1020 30.12 849 25.07 18.7 65.6 44 6.2 43.2
21:30 1020 30.12 849 25.07 18.6 65.5 43 6 42.7
21:35 1020 30.12 849 25.07 18.7 65.6 43 6 42.8
21:40 1020 30.12 849 25.07 18.6 65.5 43 6.1 42.9
21:45 1020 30.12 849 25.07 18.6 65.5 44 6.3 43.3
21:50 1020 30.12 849 25.07 18.5 65.3 46 6.6 43.9
21:55 1020 30.12 849 25.07 18.3 64.9 46 6.6 43.9
22:00 1020 30.12 849 25.07 18.2 64.7 48 7 44.6
22:05 1020 30.12 849 25.07 18 64.5 49 7.2 44.9
22:10 1020 30.12 849 25.07 18 64.4 49 7.3 45.1
22:15 1020 30.12 849 25.07 18 64.3 51 7.7 45.8
22:20 1020 30.12 849 25.07 17.8 64.1 51 7.7 45.9
22:25 1020 30.12 849 25.07 17.7 63.8 52 7.7 45.9
22:30 1020 30.12 849 25.07 17.5 63.4 53 7.8 46
22:35 1020 30.12 849 25.07 17.2 62.9 53 7.7 45.9
22:40 1020 30.12 849 25.07 17 62.5 54 7.6 45.7
22:45 1020 30.12 849 25.07 17 62.7 52 7.2 44.9
22:50 1020 30.12 849 25.07 17.4 63.3 50 7 44.5
22:55 1020 30.12 849 25.07 17.4 63.4 51 7.4 45.3
23:00 1020 30.12 849 25.07 17.3 63.1 53 7.6 45.8
23:05 1020 30.12 849 25.07 17.3 63.1 52 7.5 45.5
23:10 1020 30.12 849 25.07 17.1 62.8 55 8.1 46.6
23:15 1020 30.12 849 25.07 16.8 62.3 58 8.7 47.7
23:20 1020 30.12 849 25.07 16.3 61.4 63 9.3 48.7
23:25 1020 30.12 849 25.07 16 60.8 65 9.5 49.1
23:30 1020 30.12 849 25.07 15.9 60.6 66 9.6 49.3
23:35 1020 30.12 849 25.07 15.8 60.4 67 9.8 49.6
23:40 1020 30.12 849 25.07 15.7 60.3 68 9.9 49.7
23:45 1020 30.12 849 25.07 15.6 60.1 69 9.9 49.9
23:50 1020 30.12 849 25.07 15.6 60.1 69 10.1 50.2
23:55 1020 30.12 849 25.07 15.5 59.9 71 10.2 50.4
24:00 1020 30.12 849 25.07 15.5 59.8 71 10.3 50.5